Time;durP1;ratioP1;P1;durP2;ratioP2;P2;SDS_P1;SDS_P2;PMS_P1;PMS_P2;Temp;Humidity;BMP_temperature;BMP_pressure;BME280_temperature;BME280_humidity;BME280_pressure;Samples;Min_cycle;Max_cycle;Signal;HPM_P1;HPM_P2
2022/09/04 00:00:23;;;;;;;0.73;0.55;;;;;;;;;;5024971;28;20042;-76
2022/09/04 00:03:00;;;;;;;0.68;0.63;;;;;;;;;;5024998;28;20120;-76
2022/09/04 00:05:35;;;;;;;0.50;0.50;;;;;;;;;;5024049;28;20376;-76
2022/09/04 00:08:24;;;;;;;0.55;0.55;;;;;;;;;;5020719;28;20056;-76
2022/09/04 00:11:02;;;;;;;0.43;0.43;;;;;;;;;;5024177;28;20094;-77
2022/09/04 00:14:01;;;;;;;0.57;0.57;;;;;;;;;;5023363;28;20987;-76
2022/09/04 00:16:27;;;;;;;0.88;0.50;;;;;;;;;;4995357;28;20492;-74
2022/09/04 00:19:02;;;;;;;0.63;0.52;;;;;;;;;;5022468;28;20061;-74
2022/09/04 00:21:37;;;;;;;0.60;0.52;;;;;;;;;;5020985;28;20077;-74
2022/09/04 00:24:04;;;;;;;0.88;0.40;;;;;;;;;;5024426;28;20060;-74
2022/09/04 00:26:39;;;;;;;0.95;0.70;;;;;;;;;;5021908;28;20049;-74
2022/09/04 00:29:12;;;;;;;1.13;0.65;;;;;;;;;;5023069;28;20370;-75
2022/09/04 00:31:37;;;;;;;;;;;;;;;;;;5024706;28;20200;-75
2022/09/04 00:34:09;;;;;;;2.15;0.85;;;;;;;;;;5024805;28;20011;-75
2022/09/04 00:36:38;;;;;;;1.35;0.90;;;;;;;;;;5023567;28;20577;-75
2022/09/04 00:39:09;;;;;;;1.30;0.80;;;;;;;;;;5023849;28;20045;-75
2022/09/04 00:41:48;;;;;;;3.42;1.55;;;;;;;;;;5025275;28;20046;-75
2022/09/04 00:44:33;;;;;;;1.38;0.57;;;;;;;;;;5022797;28;20730;-75
2022/09/04 00:47:02;;;;;;;1.73;0.90;;;;;;;;;;5018983;28;20056;-76
2022/09/04 00:49:31;;;;;;;1.00;0.80;;;;;;;;;;5022226;28;20475;-75
2022/09/04 00:52:16;;;;;;;0.98;0.70;;;;;;;;;;5022905;28;20196;-75
2022/09/04 00:54:51;;;;;;;2.08;0.60;;;;;;;;;;5021675;28;20041;-75
2022/09/04 00:57:26;;;;;;;0.85;0.70;;;;;;;;;;5022759;28;20049;-75
2022/09/04 01:00:11;;;;;;;0.80;0.70;;;;;;;;;;5022304;28;20400;-75
2022/09/04 01:02:40;;;;;;;1.00;0.80;;;;;;;;;;5019374;28;20124;-75
2022/09/04 01:05:31;;;;;;;1.10;0.80;;;;;;;;;;5021488;28;20069;-75
2022/09/04 01:07:56;;;;;;;0.75;0.57;;;;;;;;;;5019530;28;20913;-75
2022/09/04 01:10:40;;;;;;;0.70;0.60;;;;;;;;;;5022549;28;20563;-75
2022/09/04 01:13:21;;;;;;;1.20;0.32;;;;;;;;;;5021660;28;20050;-75
2022/09/04 01:16:06;;;;;;;0.85;0.65;;;;;;;;;;5019888;28;20041;-76
2022/09/04 01:18:55;;;;;;;1.02;0.68;;;;;;;;;;5022820;28;20081;-75
2022/09/04 01:21:40;;;;;;;0.63;0.50;;;;;;;;;;5022344;28;20046;-75
2022/09/04 01:24:24;;;;;;;0.40;0.40;;;;;;;;;;5021303;28;20487;-75
2022/09/04 01:26:55;;;;;;;1.52;0.50;;;;;;;;;;5022712;28;20132;-75
2022/09/04 01:29:39;;;;;;;0.65;0.65;;;;;;;;;;5021127;28;20057;-75
2022/09/04 01:32:24;;;;;;;0.60;0.43;;;;;;;;;;5022076;28;20041;-75
2022/09/04 01:34:58;;;;;;;0.63;0.38;;;;;;;;;;5017058;28;20045;-75
2022/09/04 01:37:43;;;;;;;1.70;0.65;;;;;;;;;;5021966;28;20050;-75
2022/09/04 01:40:12;;;;;;;0.50;0.50;;;;;;;;;;5021169;28;20049;-76
2022/09/04 01:42:50;;;;;;;0.40;0.40;;;;;;;;;;5023808;28;20400;-75
2022/09/04 01:45:31;;;;;;;0.50;0.40;;;;;;;;;;5022596;28;20044;-75
2022/09/04 01:48:01;;;;;;;0.60;0.52;;;;;;;;;;5022323;28;20034;-75
2022/09/04 01:50:27;;;;;;;0.50;0.50;;;;;;;;;;5022047;28;20037;-74
2022/09/04 01:52:57;;;;;;;0.20;0.20;;;;;;;;;;5022212;28;20063;-75
2022/09/04 01:55:29;;;;;;;0.50;0.50;;;;;;;;;;5025595;28;20060;-74
2022/09/04 01:58:13;;;;;;;1.77;0.40;;;;;;;;;;5026527;28;20049;-75
2022/09/04 02:00:59;;;;;;;0.50;0.47;;;;;;;;;;5025181;28;20049;-75
2022/09/04 02:03:38;;;;;;;0.90;0.60;;;;;;;;;;5024619;28;20067;-75
2022/09/04 02:06:15;;;;;;;0.45;0.45;;;;;;;;;;5025523;28;20177;-75
2022/09/04 02:08:48;;;;;;;0.57;0.57;;;;;;;;;;5024778;28;20048;-76
2022/09/04 02:11:16;;;;;;;0.55;0.52;;;;;;;;;;5026444;28;20075;-75
2022/09/04 02:14:03;;;;;;;0.85;0.73;;;;;;;;;;5025972;28;20053;-75
2022/09/04 02:16:32;;;;;;;1.10;0.80;;;;;;;;;;5026146;28;20048;-76
2022/09/04 02:19:06;;;;;;;3.03;1.00;;;;;;;;;;5024830;28;20492;-75
2022/09/04 02:21:48;;;;;;;1.35;0.75;;;;;;;;;;5027207;28;20033;-75
2022/09/04 02:24:19;;;;;;;2.80;0.70;;;;;;;;;;5022165;28;20045;-75
2022/09/04 02:26:45;;;;;;;0.68;0.63;;;;;;;;;;5021297;28;20042;-75
2022/09/04 02:29:34;;;;;;;0.57;0.57;;;;;;;;;;5025199;28;20691;-75
2022/09/04 02:32:04;;;;;;;0.80;0.77;;;;;;;;;;5011008;28;20120;-75
2022/09/04 02:34:46;;;;;;;0.60;0.60;;;;;;;;;;5026851;28;20038;-75
2022/09/04 02:37:21;;;;;;;0.83;0.70;;;;;;;;;;5023763;28;20041;-75
2022/09/04 02:39:51;;;;;;;0.85;0.73;;;;;;;;;;5025689;28;20396;-75
2022/09/04 02:42:26;;;;;;;0.75;0.50;;;;;;;;;;5025125;28;20065;-76
2022/09/04 02:44:52;;;;;;;0.50;0.50;;;;;;;;;;5024363;28;20077;-75
2022/09/04 02:47:33;;;;;;;0.50;0.50;;;;;;;;;;5024800;28;20073;-76
2022/09/04 02:50:18;;;;;;;1.52;0.40;;;;;;;;;;5021096;28;20132;-75
2022/09/04 02:53:00;;;;;;;0.50;0.43;;;;;;;;;;5025448;28;20638;-75
2022/09/04 02:55:32;;;;;;;0.70;0.40;;;;;;;;;;5025878;28;20053;-75
2022/09/04 02:58:04;;;;;;;0.50;0.50;;;;;;;;;;5023229;28;20077;-75
2022/09/04 03:00:38;;;;;;;0.65;0.47;;;;;;;;;;5023991;28;20337;-75
2022/09/04 03:03:11;;;;;;;0.50;0.50;;;;;;;;;;5024909;28;20076;-75
2022/09/04 03:05:40;;;;;;;0.52;0.50;;;;;;;;;;5025099;28;20049;-75
2022/09/04 03:08:25;;;;;;;1.02;0.60;;;;;;;;;;5025195;28;20431;-75
2022/09/04 03:10:51;;;;;;;0.82;0.50;;;;;;;;;;5025818;28;20444;-75
2022/09/04 03:13:34;;;;;;;0.47;0.32;;;;;;;;;;5023881;28;20052;-75
2022/09/04 03:16:00;;;;;;;2.08;0.85;;;;;;;;;;5025258;28;20637;-75
2022/09/04 03:18:29;;;;;;;0.80;0.70;;;;;;;;;;5023056;28;20038;-75
2022/09/04 03:21:00;;;;;;;0.75;0.60;;;;;;;;;;5023883;28;20597;-75
2022/09/04 03:23:40;;;;;;;0.40;0.40;;;;;;;;;;5024093;28;20106;-76
2022/09/04 03:26:13;;;;;;;1.23;0.57;;;;;;;;;;5024558;28;20045;-75
2022/09/04 03:28:51;;;;;;;1.52;0.60;;;;;;;;;;5024471;28;20542;-75
2022/09/04 03:31:20;;;;;;;2.15;0.52;;;;;;;;;;5022459;28;20052;-75
2022/09/04 03:33:57;;;;;;;0.68;0.60;;;;;;;;;;5024001;28;20041;-75
2022/09/04 03:36:38;;;;;;;0.82;0.63;;;;;;;;;;5020537;28;20053;-76
2022/09/04 03:39:14;;;;;;;0.47;0.47;;;;;;;;;;5024488;28;20161;-75
2022/09/04 03:41:55;;;;;;;0.50;0.50;;;;;;;;;;5022104;28;20557;-76
2022/09/04 03:44:41;;;;;;;0.75;0.57;;;;;;;;;;5024288;28;20128;-75
2022/09/04 03:47:14;;;;;;;0.95;0.82;;;;;;;;;;4982778;28;20187;-76
2022/09/04 03:49:53;;;;;;;0.60;0.50;;;;;;;;;;5022219;28;20143;-76
2022/09/04 03:52:19;;;;;;;0.73;0.60;;;;;;;;;;5023583;28;20484;-76
2022/09/04 03:54:50;;;;;;;0.80;0.70;;;;;;;;;;5025165;28;20077;-75
2022/09/04 03:57:22;;;;;;;1.05;0.88;;;;;;;;;;5021547;28;20404;-76
2022/09/04 03:59:48;;;;;;;;;;;;;;;;;;5024138;28;20694;-75
2022/09/04 04:02:14;;;;;;;0.80;0.68;;;;;;;;;;5022952;28;20012;-76
2022/09/04 04:04:42;;;;;;;0.77;0.60;;;;;;;;;;5022982;28;20095;-76
2022/09/04 04:07:34;;;;;;;1.83;0.60;;;;;;;;;;5022855;28;20132;-76
2022/09/04 04:10:05;;;;;;;0.75;0.68;;;;;;;;;;5021020;28;20042;-75
2022/09/04 04:12:50;;;;;;;0.88;0.65;;;;;;;;;;5023513;28;20053;-75
2022/09/04 04:15:16;;;;;;;0.75;0.70;;;;;;;;;;5019800;28;20034;-75
2022/09/04 04:17:42;;;;;;;0.50;0.50;;;;;;;;;;5022636;28;20111;-75
2022/09/04 04:20:23;;;;;;;0.52;0.52;;;;;;;;;;5023154;28;20043;-75
2022/09/04 04:22:59;;;;;;;0.40;0.30;;;;;;;;;;5023406;28;20045;-75
2022/09/04 04:25:39;;;;;;;0.52;0.52;;;;;;;;;;5023333;28;20049;-75
2022/09/04 04:28:06;;;;;;;1.33;0.60;;;;;;;;;;5023308;28;20046;-75
2022/09/04 04:30:49;;;;;;;0.98;0.75;;;;;;;;;;5022491;28;20073;-75
2022/09/04 04:33:27;;;;;;;0.88;0.55;;;;;;;;;;5022669;28;20435;-75
2022/09/04 04:36:08;;;;;;;0.82;0.60;;;;;;;;;;5021019;28;20111;-75
2022/09/04 04:38:59;;;;;;;0.90;0.65;;;;;;;;;;5022769;28;20124;-75
2022/09/04 04:42:02;;;;;;;1.00;0.52;;;;;;;;;;5022507;28;20085;-75
2022/09/04 04:45:48;;;;;;;0.70;0.70;;;;;;;;;;5022800;28;20052;-75
2022/09/04 04:47:34;;;;;;;1.45;0.80;;;;;;;;;;5038483;28;20052;-75
2022/09/04 04:50:07;;;;;;;1.42;0.80;;;;;;;;;;5019092;28;20639;-75
2022/09/04 04:52:36;;;;;;;0.70;0.70;;;;;;;;;;5022070;28;20500;-75
2022/09/04 04:55:21;;;;;;;1.35;0.90;;;;;;;;;;5023098;28;20095;-75
2022/09/04 04:57:56;;;;;;;0.77;0.65;;;;;;;;;;5021970;28;20666;-75
2022/09/04 05:00:35;;;;;;;0.95;0.85;;;;;;;;;;5021399;28;20460;-75
2022/09/04 05:03:01;;;;;;;0.85;0.82;;;;;;;;;;5022163;28;20092;-75
2022/09/04 05:05:48;;;;;;;0.98;0.60;;;;;;;;;;5024019;28;20116;-75
2022/09/04 05:08:33;;;;;;;1.35;0.90;;;;;;;;;;5022952;28;20045;-75
2022/09/04 05:11:02;;;;;;;1.05;0.80;;;;;;;;;;5022248;28;20045;-75
2022/09/04 05:13:44;;;;;;;0.68;0.50;;;;;;;;;;5022014;28;20466;-75
2022/09/04 05:16:14;;;;;;;0.40;0.35;;;;;;;;;;5020496;28;20069;-76
2022/09/04 05:18:58;;;;;;;1.25;0.73;;;;;;;;;;5023470;28;20041;-75
2022/09/04 05:21:30;;;;;;;1.33;0.85;;;;;;;;;;5023386;28;20387;-76
2022/09/04 05:23:59;;;;;;;0.65;0.65;;;;;;;;;;5021572;28;20037;-75
2022/09/04 05:26:29;;;;;;;0.80;0.60;;;;;;;;;;5024029;28;20072;-75
2022/09/04 05:29:01;;;;;;;1.10;0.85;;;;;;;;;;5021133;28;20038;-75
2022/09/04 05:31:47;;;;;;;0.80;0.60;;;;;;;;;;5027666;28;20051;-75
2022/09/04 05:34:19;;;;;;;0.80;0.70;;;;;;;;;;5025136;28;20484;-75
2022/09/04 05:37:01;;;;;;;0.70;0.70;;;;;;;;;;5026195;28;20167;-75
2022/09/04 05:39:36;;;;;;;0.80;0.70;;;;;;;;;;5027230;28;20053;-75
2022/09/04 05:42:02;;;;;;;1.20;0.70;;;;;;;;;;5022628;28;20033;-75
2022/09/04 05:44:46;;;;;;;0.55;0.52;;;;;;;;;;5026199;28;20091;-75
2022/09/04 05:47:22;;;;;;;0.70;0.70;;;;;;;;;;5016411;28;20465;-76
2022/09/04 05:49:59;;;;;;;0.57;0.57;;;;;;;;;;5025550;28;20045;-75
2022/09/04 05:52:43;;;;;;;1.33;0.75;;;;;;;;;;5025681;28;20045;-76
2022/09/04 05:55:18;;;;;;;0.80;0.70;;;;;;;;;;5024122;28;20064;-75
2022/09/04 05:58:02;;;;;;;0.60;0.60;;;;;;;;;;5020306;28;20381;-76
2022/09/04 06:00:45;;;;;;;0.60;0.60;;;;;;;;;;5025768;28;20049;-76
2022/09/04 06:03:22;;;;;;;1.80;0.80;;;;;;;;;;5024499;28;20672;-76
2022/09/04 06:06:04;;;;;;;0.57;0.57;;;;;;;;;;5025259;28;20476;-76
2022/09/04 06:08:30;;;;;;;0.90;0.80;;;;;;;;;;5027582;28;20041;-75
2022/09/04 06:11:25;;;;;;;1.80;0.90;;;;;;;;;;5023829;28;20045;-75
2022/09/04 06:13:51;;;;;;;0.38;0.38;;;;;;;;;;5024929;28;20120;-75
2022/09/04 06:16:27;;;;;;;1.35;0.70;;;;;;;;;;5025492;28;20444;-76
2022/09/04 06:18:59;;;;;;;1.02;0.88;;;;;;;;;;5023803;28;20134;-76
2022/09/04 06:21:25;;;;;;;1.15;0.77;;;;;;;;;;5025592;28;20067;-76
2022/09/04 06:24:04;;;;;;;0.90;0.90;;;;;;;;;;5024215;28;20479;-75
2022/09/04 06:26:30;;;;;;;2.15;0.73;;;;;;;;;;5023410;28;20160;-75
2022/09/04 06:29:02;;;;;;;1.10;0.80;;;;;;;;;;5024813;28;20125;-75
2022/09/04 06:31:35;;;;;;;2.15;0.85;;;;;;;;;;5025408;28;20061;-75
2022/09/04 06:34:01;;;;;;;1.50;1.05;;;;;;;;;;5023811;28;20049;-76
2022/09/04 06:36:27;;;;;;;1.27;1.15;;;;;;;;;;5023473;28;20060;-76
2022/09/04 06:39:04;;;;;;;1.05;0.80;;;;;;;;;;5024140;28;20087;-76
2022/09/04 06:41:30;;;;;;;1.23;0.98;;;;;;;;;;5026372;28;20077;-76
2022/09/04 06:44:04;;;;;;;1.60;0.80;;;;;;;;;;5021642;28;20076;-76
2022/09/04 06:46:33;;;;;;;0.60;0.60;;;;;;;;;;5024933;28;20527;-76
2022/09/04 06:49:05;;;;;;;0.73;0.73;;;;;;;;;;5026071;28;20099;-75
2022/09/04 06:51:40;;;;;;;4.20;1.45;;;;;;;;;;5024189;28;20053;-75
2022/09/04 06:54:16;;;;;;;1.48;1.15;;;;;;;;;;5015955;28;20045;-76
2022/09/04 06:57:01;;;;;;;1.08;0.85;;;;;;;;;;5026587;28;20053;-77
2022/09/04 06:59:36;;;;;;;2.67;1.40;;;;;;;;;;5026252;28;20058;-76
2022/09/04 07:02:17;;;;;;;1.63;1.10;;;;;;;;;;5027322;28;20053;-75
2022/09/04 07:04:43;;;;;;;1.33;1.23;;;;;;;;;;5026973;28;20061;-76
2022/09/04 07:07:09;;;;;;;1.35;1.10;;;;;;;;;;5026783;28;20049;-76
2022/09/04 07:09:42;;;;;;;0.98;0.90;;;;;;;;;;5026664;28;20041;-76
2022/09/04 07:12:25;;;;;;;0.90;0.82;;;;;;;;;;5025874;28;20069;-77
2022/09/04 07:14:59;;;;;;;1.15;0.90;;;;;;;;;;5013636;28;20038;-77
2022/09/04 07:17:25;;;;;;;1.65;0.88;;;;;;;;;;5025356;28;20073;-76
2022/09/04 07:19:54;;;;;;;1.92;0.98;;;;;;;;;;5026160;28;20079;-76
2022/09/04 07:22:20;;;;;;;1.33;1.15;;;;;;;;;;5027335;28;20155;-71
2022/09/04 07:24:55;;;;;;;1.63;1.00;;;;;;;;;;5025756;28;20406;-67
2022/09/04 07:27:36;;;;;;;1.30;1.20;;;;;;;;;;5027016;28;20448;-73
2022/09/04 07:30:02;;;;;;;1.30;0.98;;;;;;;;;;5027115;28;20041;-69
2022/09/04 07:32:33;;;;;;;1.42;1.00;;;;;;;;;;5026211;28;20201;-68
2022/09/04 07:34:59;;;;;;;1.08;0.98;;;;;;;;;;5025042;28;20045;-69
2022/09/04 07:37:26;;;;;;;1.08;0.93;;;;;;;;;;5027066;28;20049;-67
2022/09/04 07:39:55;;;;;;;1.55;1.13;;;;;;;;;;5027082;28;20107;-76
2022/09/04 07:42:41;;;;;;;6.13;1.10;;;;;;;;;;5024641;28;20091;-78
2022/09/04 07:45:26;;;;;;;2.90;1.50;;;;;;;;;;5025269;28;20049;-78
2022/09/04 07:47:56;;;;;;;1.27;1.08;;;;;;;;;;5025009;28;20045;-78
2022/09/04 07:50:25;;;;;;;1.67;1.30;;;;;;;;;;5025096;28;20107;-77
2022/09/04 07:53:03;;;;;;;1.65;1.23;;;;;;;;;;5019028;28;20043;-78
2022/09/04 07:55:35;;;;;;;1.00;0.90;;;;;;;;;;5026351;28;20084;-78
2022/09/04 07:58:06;;;;;;;1.08;0.95;;;;;;;;;;5026373;28;20045;-76
2022/09/04 08:00:50;;;;;;;1.10;1.00;;;;;;;;;;5027205;28;20045;-77
2022/09/04 08:03:35;;;;;;;3.25;1.55;;;;;;;;;;5024675;28;20107;-77
2022/09/04 08:06:12;;;;;;;1.90;1.00;;;;;;;;;;5026448;28;20041;-77
2022/09/04 08:08:38;;;;;;;3.67;1.70;;;;;;;;;;5024906;28;20060;-77
2022/09/04 08:11:07;;;;;;;1.33;0.93;;;;;;;;;;5025084;28;20388;-77
2022/09/04 08:13:34;;;;;;;1.35;0.93;;;;;;;;;;5024915;28;20041;-79
2022/09/04 08:16:07;;;;;;;1.17;0.70;;;;;;;;;;5016242;28;20042;-69
2022/09/04 08:18:52;;;;;;;1.67;1.05;;;;;;;;;;5026096;28;20087;-76
2022/09/04 08:21:18;;;;;;;1.88;1.40;;;;;;;;;;5020609;28;20399;-76
2022/09/04 08:24:00;;;;;;;1.42;1.17;;;;;;;;;;5017597;28;20042;-76
2022/09/04 08:26:28;;;;;;;2.95;1.30;;;;;;;;;;5025047;28;20056;-77
2022/09/04 08:29:02;;;;;;;1.48;1.08;;;;;;;;;;5025600;28;20450;-77
2022/09/04 08:31:31;;;;;;;2.00;1.33;;;;;;;;;;5025767;28;20931;-77
2022/09/04 08:34:15;;;;;;;1.20;1.10;;;;;;;;;;5023884;28;20060;-76
2022/09/04 08:36:45;;;;;;;1.45;1.25;;;;;;;;;;5024358;28;20391;-77
2022/09/04 08:39:34;;;;;;;1.35;1.00;;;;;;;;;;5026138;28;20049;-76
2022/09/04 08:41:59;;;;;;;1.70;1.27;;;;;;;;;;5024270;28;20045;-76
2022/09/04 08:44:25;;;;;;;1.10;1.00;;;;;;;;;;5024187;28;20495;-77
2022/09/04 08:47:07;;;;;;;2.40;1.13;;;;;;;;;;5024634;28;20097;-77
2022/09/04 08:49:53;;;;;;;1.67;1.40;;;;;;;;;;5025411;28;20407;-77
2022/09/04 08:52:38;;;;;;;1.95;1.10;;;;;;;;;;5023960;28;20124;-77
2022/09/04 08:55:23;;;;;;;3.65;1.27;;;;;;;;;;5025105;28;20058;-76
2022/09/04 08:57:49;;;;;;;1.08;0.98;;;;;;;;;;5025247;28;20335;-76
2022/09/04 09:00:18;;;;;;;1.10;0.90;;;;;;;;;;5025776;28;20045;-76
2022/09/04 09:03:03;;;;;;;2.35;1.15;;;;;;;;;;5025083;28;20061;-76
2022/09/04 09:05:38;;;;;;;0.88;0.88;;;;;;;;;;5028144;28;20042;-76
2022/09/04 09:08:06;;;;;;;1.38;1.20;;;;;;;;;;5030096;28;20068;-77
2022/09/04 09:11:02;;;;;;;1.27;1.17;;;;;;;;;;5028890;28;20492;-76
2022/09/04 09:13:46;;;;;;;1.00;0.90;;;;;;;;;;5019718;28;20424;-76
2022/09/04 09:16:15;;;;;;;1.35;1.17;;;;;;;;;;5029835;28;20507;-76
2022/09/04 09:19:00;;;;;;;1.42;1.15;;;;;;;;;;5029099;28;20045;-77
2022/09/04 09:21:29;;;;;;;1.25;1.00;;;;;;;;;;5028592;28;20041;-77
2022/09/04 09:24:14;;;;;;;1.02;0.93;;;;;;;;;;5028573;28;20049;-76
2022/09/04 09:27:03;;;;;;;1.50;1.02;;;;;;;;;;5027808;28;20056;-77
2022/09/04 09:29:42;;;;;;;1.67;1.08;;;;;;;;;;5019240;28;20053;-76
2022/09/04 09:32:11;;;;;;;3.67;1.30;;;;;;;;;;5029434;28;20049;-77
2022/09/04 09:34:40;;;;;;;1.73;1.20;;;;;;;;;;5028339;28;20546;-77
2022/09/04 09:37:09;;;;;;;1.67;0.95;;;;;;;;;;5028155;28;20045;-77
2022/09/04 09:39:56;;;;;;;2.20;1.00;;;;;;;;;;5029057;28;20129;-77
2022/09/04 09:42:48;;;;;;;1.95;1.00;;;;;;;;;;5029358;28;20048;-76
2022/09/04 09:45:21;;;;;;;1.73;1.25;;;;;;;;;;5029495;28;20046;-75
2022/09/04 09:47:53;;;;;;;1.67;1.20;;;;;;;;;;5028639;28;20045;-77
2022/09/04 09:50:19;;;;;;;;;;;;;;;;;;5029688;28;20049;-77
2022/09/04 09:52:57;;;;;;;1.13;1.00;;;;;;;;;;5029034;28;19920;-76
2022/09/04 09:55:42;;;;;;;1.17;1.08;;;;;;;;;;5028711;28;20057;-76
2022/09/04 09:58:21;;;;;;;1.10;1.00;;;;;;;;;;5029012;28;20081;-76
2022/09/04 10:00:59;;;;;;;2.38;1.08;;;;;;;;;;5028829;28;20038;-76
2022/09/04 10:03:28;;;;;;;1.63;1.02;;;;;;;;;;5028933;28;20093;-77
2022/09/04 10:06:08;;;;;;;1.05;0.93;;;;;;;;;;5028962;28;20103;-76
2022/09/04 10:08:53;;;;;;;3.00;1.13;;;;;;;;;;5027953;28;20072;-76
2022/09/04 10:11:38;;;;;;;1.10;0.90;;;;;;;;;;5028815;28;20052;-76
2022/09/04 10:14:16;;;;;;;2.58;0.85;;;;;;;;;;5029287;28;20057;-77
2022/09/04 10:16:55;;;;;;;1.30;0.90;;;;;;;;;;5027612;28;20044;-77
2022/09/04 10:19:21;;;;;;;1.30;1.00;;;;;;;;;;5028735;28;20504;-77
2022/09/04 10:21:53;;;;;;;1.05;0.93;;;;;;;;;;5028272;28;20049;-77
2022/09/04 10:24:38;;;;;;;1.58;0.88;;;;;;;;;;5027202;28;20100;-76
2022/09/04 10:27:20;;;;;;;1.00;0.95;;;;;;;;;;5028923;28;20045;-77
2022/09/04 10:29:51;;;;;;;2.58;0.90;;;;;;;;;;5027592;28;20077;-77
2022/09/04 10:32:17;;;;;;;;;;;;;;;;;;5027587;28;20049;-76
2022/09/04 10:34:53;;;;;;;3.92;1.08;;;;;;;;;;5027387;28;19932;-78
2022/09/04 10:37:25;;;;;;;1.08;0.98;;;;;;;;;;5027983;28;20056;-76
2022/09/04 10:43:09;;;;;;;1.60;1.02;;;;;;;;;;5026561;28;20053;-77
2022/09/04 10:45:41;;;;;;;2.25;0.98;;;;;;;;;;5027568;28;20072;-77
2022/09/04 10:48:21;;;;;;;0.95;0.85;;;;;;;;;;5028678;28;20132;-76
2022/09/04 10:51:08;;;;;;;1.70;1.10;;;;;;;;;;5028091;28;20096;-76
2022/09/04 10:53:55;;;;;;;2.40;0.93;;;;;;;;;;5027666;28;20049;-77
2022/09/04 10:56:30;;;;;;;1.20;1.00;;;;;;;;;;5026834;28;20060;-77
2022/09/04 10:59:12;;;;;;;3.08;0.93;;;;;;;;;;5027082;28;20140;-77
2022/09/04 11:01:54;;;;;;;1.10;0.70;;;;;;;;;;5027146;28;20176;-77
2022/09/04 11:04:19;;;;;;;;;;;;;;;;;;5027662;28;20492;-77
2022/09/04 11:07:02;;;;;;;0.75;0.75;;;;;;;;;;5026784;28;19928;-76
2022/09/04 11:09:41;;;;;;;0.90;0.90;;;;;;;;;;5027813;28;20291;-77
2022/09/04 11:12:08;;;;;;;1.17;0.93;;;;;;;;;;5027352;28;20045;-76
2022/09/04 11:14:34;;;;;;;1.23;0.82;;;;;;;;;;5026865;28;20037;-76
2022/09/04 11:17:00;;;;;;;0.82;0.82;;;;;;;;;;5025950;28;20377;-76
2022/09/04 11:19:55;;;;;;;1.35;1.00;;;;;;;;;;5025480;28;20091;-77
2022/09/04 11:22:24;;;;;;;1.85;1.00;;;;;;;;;;5026460;28;20052;-76
2022/09/04 11:25:09;;;;;;;1.23;1.00;;;;;;;;;;5026043;28;20439;-76
2022/09/04 11:27:50;;;;;;;2.00;0.90;;;;;;;;;;5025274;28;20042;-77
2022/09/04 11:30:25;;;;;;;2.13;0.70;;;;;;;;;;5026241;28;20041;-76
2022/09/04 11:33:10;;;;;;;1.42;0.90;;;;;;;;;;5026524;28;20454;-77
2022/09/04 11:35:39;;;;;;;3.17;0.88;;;;;;;;;;5027748;28;20125;-77
2022/09/04 11:38:16;;;;;;;1.23;1.10;;;;;;;;;;5026330;28;20579;-77
2022/09/04 11:40:48;;;;;;;0.88;0.82;;;;;;;;;;5026650;28;20079;-77
2022/09/04 11:43:35;;;;;;;1.15;0.90;;;;;;;;;;5026123;28;20072;-77
2022/09/04 11:46:18;;;;;;;0.77;0.77;;;;;;;;;;5025701;28;20053;-76
2022/09/04 11:49:06;;;;;;;2.25;0.90;;;;;;;;;;5025089;28;20049;-76
2022/09/04 11:51:40;;;;;;;1.35;0.90;;;;;;;;;;5026846;28;20045;-76
2022/09/04 11:54:18;;;;;;;0.85;0.77;;;;;;;;;;5025813;28;20076;-76
2022/09/04 11:56:53;;;;;;;0.82;0.77;;;;;;;;;;5025832;28;20045;-77
2022/09/04 11:59:27;;;;;;;1.45;0.73;;;;;;;;;;5025544;28;20049;-76
2022/09/04 12:02:06;;;;;;;1.15;0.63;;;;;;;;;;5024860;28;20133;-76
2022/09/04 12:04:46;;;;;;;1.08;0.88;;;;;;;;;;5025468;28;20049;-77
2022/09/04 12:07:33;;;;;;;0.60;0.60;;;;;;;;;;5026835;28;20059;-76
2022/09/04 12:10:20;;;;;;;0.88;0.75;;;;;;;;;;5026474;28;20049;-77
2022/09/04 12:13:04;;;;;;;1.55;0.68;;;;;;;;;;5026053;28;20571;-76
2022/09/04 12:15:43;;;;;;;1.77;1.10;;;;;;;;;;5026173;28;20052;-77
2022/09/04 12:18:30;;;;;;;0.77;0.70;;;;;;;;;;5024695;28;20069;-76
2022/09/04 12:21:16;;;;;;;0.90;0.60;;;;;;;;;;5023464;28;20122;-76
2022/09/04 12:24:01;;;;;;;2.00;0.70;;;;;;;;;;5025889;28;20130;-76
2022/09/04 12:26:30;;;;;;;0.88;0.65;;;;;;;;;;5025888;28;20555;-76
2022/09/04 12:29:16;;;;;;;1.02;0.80;;;;;;;;;;5025519;28;20344;-76
2022/09/04 12:32:00;;;;;;;0.82;0.68;;;;;;;;;;5016813;28;20092;-75
2022/09/04 12:34:34;;;;;;;1.75;0.80;;;;;;;;;;5017876;28;20041;-76
2022/09/04 12:37:18;;;;;;;0.90;0.90;;;;;;;;;;5015589;28;20041;-76
2022/09/04 12:39:44;;;;;;;2.22;0.80;;;;;;;;;;5006038;28;20189;-76
2022/09/04 12:42:22;;;;;;;0.90;0.63;;;;;;;;;;5011915;28;20120;-76
2022/09/04 12:45:04;;;;;;;0.70;0.70;;;;;;;;;;5025182;28;20049;-76
2022/09/04 12:47:31;;;;;;;;;;;;;;;;;;5025323;28;20045;-76
2022/09/04 12:50:21;;;;;;;0.95;0.75;;;;;;;;;;5025367;28;20016;-76
2022/09/04 12:53:05;;;;;;;0.98;0.70;;;;;;;;;;5016893;28;20128;-76
2022/09/04 12:55:37;;;;;;;0.60;0.60;;;;;;;;;;5025931;28;20045;-76
2022/09/04 12:58:23;;;;;;;1.30;0.65;;;;;;;;;;5023348;28;20065;-76
2022/09/04 13:01:15;;;;;;;0.68;0.68;;;;;;;;;;5014711;28;20041;-76
2022/09/04 13:03:54;;;;;;;0.65;0.60;;;;;;;;;;5004726;28;20487;-76
2022/09/04 13:06:29;;;;;;;1.20;0.88;;;;;;;;;;5018206;28;20045;-76
2022/09/04 13:09:01;;;;;;;0.80;0.80;;;;;;;;;;5022708;28;20391;-75
2022/09/04 13:11:27;;;;;;;1.40;1.00;;;;;;;;;;5017634;28;20049;-76
2022/09/04 13:14:08;;;;;;;0.50;0.50;;;;;;;;;;5022276;28;20037;-76
2022/09/04 13:16:56;;;;;;;0.80;0.80;;;;;;;;;;5011339;28;20049;-76
2022/09/04 13:19:34;;;;;;;0.70;0.68;;;;;;;;;;5012746;28;20132;-76
2022/09/04 13:22:00;;;;;;;0.80;0.80;;;;;;;;;;5015376;28;20065;-78
2022/09/04 13:24:50;;;;;;;0.75;0.75;;;;;;;;;;5013502;28;20034;-78
2022/09/04 13:27:28;;;;;;;0.40;0.40;;;;;;;;;;5011518;28;20098;-77
2022/09/04 13:29:54;;;;;;;2.45;0.85;;;;;;;;;;5021700;28;20183;-79
2022/09/04 13:32:23;;;;;;;1.73;0.90;;;;;;;;;;5019988;28;20107;-77
2022/09/04 13:34:52;;;;;;;0.90;0.52;;;;;;;;;;5015070;28;20084;-78
2022/09/04 13:37:28;;;;;;;0.60;0.60;;;;;;;;;;5015170;28;20546;-78
2022/09/04 13:39:59;;;;;;;3.10;0.70;;;;;;;;;;5024362;28;20046;-78
2022/09/04 13:42:25;;;;;;;;;;;;;;;;;;5021554;28;20133;-78
2022/09/04 13:44:57;;;;;;;0.80;0.70;;;;;;;;;;5023460;28;20008;-78
2022/09/04 13:47:25;;;;;;;0.52;0.52;;;;;;;;;;5010820;28;20085;-78
2022/09/04 13:50:12;;;;;;;0.57;0.57;;;;;;;;;;5021453;28;20088;-78
2022/09/04 13:52:59;;;;;;;0.90;0.50;;;;;;;;;;5021329;28;20056;-78
2022/09/04 13:55:38;;;;;;;0.80;0.80;;;;;;;;;;5015966;28;20104;-78
2022/09/04 13:58:09;;;;;;;0.70;0.70;;;;;;;;;;5027020;28;20563;-78
2022/09/04 14:00:37;;;;;;;0.50;0.50;;;;;;;;;;5019395;28;20128;-77
2022/09/04 14:03:06;;;;;;;0.80;0.80;;;;;;;;;;5023282;28;20037;-77
2022/09/04 14:05:33;;;;;;;0.57;0.57;;;;;;;;;;5027246;28;20052;-77
2022/09/04 14:08:09;;;;;;;0.70;0.70;;;;;;;;;;5025026;28;20075;-78
2022/09/04 14:10:48;;;;;;;1.00;0.90;;;;;;;;;;5016842;28;20052;-78
2022/09/04 14:13:27;;;;;;;0.95;0.65;;;;;;;;;;5027191;28;20084;-77
2022/09/04 14:16:10;;;;;;;0.70;0.70;;;;;;;;;;5015532;28;20041;-77
2022/09/04 14:18:45;;;;;;;0.50;0.50;;;;;;;;;;5020550;28;20475;-77
2022/09/04 14:21:30;;;;;;;0.70;0.70;;;;;;;;;;5024671;28;20045;-77
2022/09/04 14:24:05;;;;;;;0.65;0.65;;;;;;;;;;5024061;28;20041;-77
2022/09/04 14:26:35;;;;;;;0.50;0.50;;;;;;;;;;5026405;28;20114;-77
2022/09/04 14:29:18;;;;;;;0.60;0.60;;;;;;;;;;5027578;28;20494;-78
2022/09/04 14:31:53;;;;;;;0.70;0.70;;;;;;;;;;5015940;28;20053;-77
2022/09/04 14:34:28;;;;;;;0.47;0.47;;;;;;;;;;5026215;28;20098;-78
2022/09/04 14:36:55;;;;;;;1.05;0.70;;;;;;;;;;5016466;28;20049;-78
2022/09/04 14:39:33;;;;;;;0.40;0.40;;;;;;;;;;5018544;28;20049;-77
2022/09/04 14:42:05;;;;;;;0.25;0.25;;;;;;;;;;5009613;28;20049;-77
2022/09/04 14:44:41;;;;;;;0.50;0.50;;;;;;;;;;5026226;28;20077;-76
2022/09/04 14:47:15;;;;;;;0.55;0.40;;;;;;;;;;5019189;28;20044;-75
2022/09/04 14:49:44;;;;;;;0.50;0.50;;;;;;;;;;5020706;28;20045;-75
2022/09/04 14:52:15;;;;;;;0.30;0.20;;;;;;;;;;5027097;28;20041;-74
2022/09/04 14:54:44;;;;;;;0.57;0.50;;;;;;;;;;5025904;28;20045;-75
2022/09/04 14:57:16;;;;;;;0.85;0.57;;;;;;;;;;5026869;28;20049;-75
2022/09/04 14:59:42;;;;;;;;;;;;;;;;;;5027334;28;20068;-74
2022/09/04 15:02:11;;;;;;;0.60;0.60;;;;;;;;;;5007697;28;19980;-74
2022/09/04 15:04:45;;;;;;;0.50;0.50;;;;;;;;;;5013631;28;20057;-74
2022/09/04 15:07:17;;;;;;;0.40;0.40;;;;;;;;;;5026285;28;20136;-75
2022/09/04 15:09:45;;;;;;;1.98;0.70;;;;;;;;;;5027758;28;20480;-74
2022/09/04 15:12:17;;;;;;;0.60;0.60;;;;;;;;;;5027178;28;20086;-76
2022/09/04 15:14:46;;;;;;;0.70;0.70;;;;;;;;;;5026054;28;20057;-76
2022/09/04 15:17:13;;;;;;;0.50;0.50;;;;;;;;;;5019780;28;20080;-76
2022/09/04 15:20:12;;;;;;;0.70;0.70;;;;;;;;;;5026931;28;20045;-75
2022/09/04 15:22:38;;;;;;;2.08;0.82;;;;;;;;;;5014264;28;20067;-74
2022/09/04 15:25:06;;;;;;;1.15;0.82;;;;;;;;;;5019399;28;20054;-75
2022/09/04 15:27:41;;;;;;;0.80;0.70;;;;;;;;;;5017858;28;20091;-74
2022/09/04 15:30:08;;;;;;;0.70;0.70;;;;;;;;;;5025437;28;20079;-75
2022/09/04 15:32:40;;;;;;;0.50;0.50;;;;;;;;;;5020413;28;20053;-75
2022/09/04 15:35:20;;;;;;;0.50;0.50;;;;;;;;;;5026426;28;20049;-75
2022/09/04 15:37:47;;;;;;;0.63;0.63;;;;;;;;;;5017098;28;20479;-76
2022/09/04 15:40:16;;;;;;;0.98;0.80;;;;;;;;;;5012618;28;20107;-77